sensor_id;sensor_type;location;lat;lon;timestamp;P1;durP1;ratioP1;P2;durP2;ratioP2
34064;SDS011;20339;49.754;20.158;2023-07-02T00:01:07;14.30;;;13.00;;
34064;SDS011;20339;49.754;20.158;2023-07-02T00:03:58;14.40;;;13.00;;
34064;SDS011;20339;49.754;20.158;2023-07-02T00:06:30;15.00;;;13.50;;
34064;SDS011;20339;49.754;20.158;2023-07-02T00:09:01;15.10;;;13.60;;
34064;SDS011;20339;49.754;20.158;2023-07-02T00:11:33;15.30;;;13.80;;
34064;SDS011;20339;49.754;20.158;2023-07-02T00:14:05;16.40;;;14.70;;
34064;SDS011;20339;49.754;20.158;2023-07-02T00:16:37;14.90;;;13.40;;
34064;SDS011;20339;49.754;20.158;2023-07-02T00:19:09;16.40;;;14.80;;
34064;SDS011;20339;49.754;20.158;2023-07-02T00:21:41;15.20;;;13.80;;
34064;SDS011;20339;49.754;20.158;2023-07-02T00:24:12;15.60;;;14.00;;
34064;SDS011;20339;49.754;20.158;2023-07-02T00:26:44;17.10;;;15.30;;
34064;SDS011;20339;49.754;20.158;2023-07-02T00:29:16;17.20;;;15.30;;
34064;SDS011;20339;49.754;20.158;2023-07-02T00:31:47;16.40;;;14.70;;
34064;SDS011;20339;49.754;20.158;2023-07-02T00:34:18;15.90;;;14.30;;
34064;SDS011;20339;49.754;20.158;2023-07-02T00:36:51;16.60;;;15.00;;
34064;SDS011;20339;49.754;20.158;2023-07-02T00:39:25;16.90;;;15.30;;
34064;SDS011;20339;49.754;20.158;2023-07-02T00:42:01;17.00;;;15.30;;
34064;SDS011;20339;49.754;20.158;2023-07-02T00:44:33;16.80;;;15.20;;
34064;SDS011;20339;49.754;20.158;2023-07-02T00:47:08;16.40;;;14.80;;
34064;SDS011;20339;49.754;20.158;2023-07-02T00:49:41;15.70;;;14.10;;
34064;SDS011;20339;49.754;20.158;2023-07-02T00:52:12;17.70;;;15.20;;
34064;SDS011;20339;49.754;20.158;2023-07-02T00:54:44;19.30;;;15.90;;
34064;SDS011;20339;49.754;20.158;2023-07-02T00:57:15;16.70;;;15.10;;
34064;SDS011;20339;49.754;20.158;2023-07-02T00:59:48;15.60;;;14.10;;
34064;SDS011;20339;49.754;20.158;2023-07-02T01:02:19;14.10;;;12.70;;
34064;SDS011;20339;49.754;20.158;2023-07-02T01:04:53;14.70;;;13.20;;
34064;SDS011;20339;49.754;20.158;2023-07-02T01:07:27;13.80;;;12.50;;
34064;SDS011;20339;49.754;20.158;2023-07-02T01:09:59;14.00;;;12.40;;
34064;SDS011;20339;49.754;20.158;2023-07-02T01:12:33;15.00;;;13.40;;
34064;SDS011;20339;49.754;20.158;2023-07-02T01:15:06;15.80;;;13.80;;
34064;SDS011;20339;49.754;20.158;2023-07-02T01:17:38;16.90;;;15.20;;
34064;SDS011;20339;49.754;20.158;2023-07-02T01:20:11;17.60;;;15.80;;
34064;SDS011;20339;49.754;20.158;2023-07-02T01:22:42;16.70;;;15.10;;
34064;SDS011;20339;49.754;20.158;2023-07-02T01:25:14;16.80;;;15.00;;
34064;SDS011;20339;49.754;20.158;2023-07-02T01:27:46;16.80;;;15.10;;
34064;SDS011;20339;49.754;20.158;2023-07-02T01:30:17;17.00;;;15.20;;
34064;SDS011;20339;49.754;20.158;2023-07-02T01:32:49;16.10;;;14.60;;
34064;SDS011;20339;49.754;20.158;2023-07-02T01:35:20;18.70;;;14.70;;
34064;SDS011;20339;49.754;20.158;2023-07-02T01:37:51;17.00;;;15.30;;
34064;SDS011;20339;49.754;20.158;2023-07-02T01:40:23;17.00;;;15.30;;
34064;SDS011;20339;49.754;20.158;2023-07-02T01:42:54;17.10;;;15.50;;
34064;SDS011;20339;49.754;20.158;2023-07-02T01:45:25;16.70;;;15.00;;
34064;SDS011;20339;49.754;20.158;2023-07-02T01:47:58;16.70;;;15.00;;
34064;SDS011;20339;49.754;20.158;2023-07-02T01:50:31;17.10;;;15.30;;
34064;SDS011;20339;49.754;20.158;2023-07-02T01:53:05;15.30;;;13.80;;
34064;SDS011;20339;49.754;20.158;2023-07-02T01:55:40;15.50;;;13.70;;
34064;SDS011;20339;49.754;20.158;2023-07-02T01:58:14;16.20;;;14.00;;
34064;SDS011;20339;49.754;20.158;2023-07-02T02:00:45;16.10;;;14.60;;
34064;SDS011;20339;49.754;20.158;2023-07-02T02:03:19;16.50;;;14.80;;
34064;SDS011;20339;49.754;20.158;2023-07-02T02:05:51;17.10;;;15.20;;
34064;SDS011;20339;49.754;20.158;2023-07-02T02:08:23;14.70;;;13.20;;
34064;SDS011;20339;49.754;20.158;2023-07-02T02:10:55;14.50;;;13.20;;
34064;SDS011;20339;49.754;20.158;2023-07-02T02:13:30;14.90;;;13.40;;
34064;SDS011;20339;49.754;20.158;2023-07-02T02:16:02;15.60;;;14.00;;
34064;SDS011;20339;49.754;20.158;2023-07-02T02:18:33;15.10;;;13.40;;
34064;SDS011;20339;49.754;20.158;2023-07-02T02:21:10;12.60;;;11.30;;
34064;SDS011;20339;49.754;20.158;2023-07-02T02:23:46;14.70;;;13.00;;
34064;SDS011;20339;49.754;20.158;2023-07-02T02:26:25;14.00;;;12.00;;
34064;SDS011;20339;49.754;20.158;2023-07-02T02:28:56;13.60;;;12.20;;
34064;SDS011;20339;49.754;20.158;2023-07-02T02:31:30;14.30;;;12.80;;
34064;SDS011;20339;49.754;20.158;2023-07-02T02:34:04;14.80;;;13.00;;
34064;SDS011;20339;49.754;20.158;2023-07-02T02:36:38;14.00;;;12.60;;
34064;SDS011;20339;49.754;20.158;2023-07-02T02:39:12;15.20;;;13.70;;
34064;SDS011;20339;49.754;20.158;2023-07-02T02:41:52;14.90;;;12.60;;
34064;SDS011;20339;49.754;20.158;2023-07-02T02:44:26;15.20;;;13.60;;
34064;SDS011;20339;49.754;20.158;2023-07-02T02:47:00;15.10;;;13.50;;
34064;SDS011;20339;49.754;20.158;2023-07-02T02:49:36;14.80;;;13.30;;
34064;SDS011;20339;49.754;20.158;2023-07-02T02:52:10;14.80;;;13.30;;
34064;SDS011;20339;49.754;20.158;2023-07-02T02:54:45;14.40;;;12.90;;
34064;SDS011;20339;49.754;20.158;2023-07-02T02:57:17;15.00;;;13.50;;
34064;SDS011;20339;49.754;20.158;2023-07-02T02:59:50;15.60;;;13.90;;
34064;SDS011;20339;49.754;20.158;2023-07-02T03:02:21;16.40;;;14.00;;
34064;SDS011;20339;49.754;20.158;2023-07-02T03:04:55;15.50;;;13.80;;
34064;SDS011;20339;49.754;20.158;2023-07-02T03:07:30;16.80;;;14.60;;
34064;SDS011;20339;49.754;20.158;2023-07-02T03:10:08;15.50;;;13.80;;
34064;SDS011;20339;49.754;20.158;2023-07-02T03:12:43;16.10;;;14.40;;
34064;SDS011;20339;49.754;20.158;2023-07-02T03:15:15;14.60;;;13.10;;
34064;SDS011;20339;49.754;20.158;2023-07-02T03:17:47;15.30;;;13.80;;
34064;SDS011;20339;49.754;20.158;2023-07-02T03:20:19;14.60;;;13.20;;
34064;SDS011;20339;49.754;20.158;2023-07-02T03:22:54;14.30;;;12.80;;
34064;SDS011;20339;49.754;20.158;2023-07-02T03:25:28;16.10;;;13.70;;
34064;SDS011;20339;49.754;20.158;2023-07-02T03:28:00;14.80;;;13.30;;
34064;SDS011;20339;49.754;20.158;2023-07-02T03:30:34;15.10;;;13.50;;
34064;SDS011;20339;49.754;20.158;2023-07-02T03:33:05;16.30;;;13.60;;
34064;SDS011;20339;49.754;20.158;2023-07-02T03:35:39;16.60;;;14.20;;
34064;SDS011;20339;49.754;20.158;2023-07-02T03:38:14;14.50;;;13.00;;
34064;SDS011;20339;49.754;20.158;2023-07-02T03:40:46;13.20;;;11.90;;
34064;SDS011;20339;49.754;20.158;2023-07-02T03:43:18;16.00;;;13.50;;
34064;SDS011;20339;49.754;20.158;2023-07-02T03:45:51;14.80;;;13.30;;
34064;SDS011;20339;49.754;20.158;2023-07-02T03:48:22;14.60;;;13.20;;
34064;SDS011;20339;49.754;20.158;2023-07-02T03:50:54;14.60;;;13.10;;
34064;SDS011;20339;49.754;20.158;2023-07-02T03:53:25;14.00;;;12.60;;
34064;SDS011;20339;49.754;20.158;2023-07-02T03:55:57;15.40;;;13.50;;
34064;SDS011;20339;49.754;20.158;2023-07-02T03:58:28;16.60;;;13.00;;
34064;SDS011;20339;49.754;20.158;2023-07-02T04:01:00;14.00;;;12.50;;
34064;SDS011;20339;49.754;20.158;2023-07-02T04:03:31;15.00;;;12.70;;
34064;SDS011;20339;49.754;20.158;2023-07-02T04:06:02;14.40;;;13.00;;
34064;SDS011;20339;49.754;20.158;2023-07-02T04:08:34;14.20;;;12.70;;
34064;SDS011;20339;49.754;20.158;2023-07-02T04:11:06;14.00;;;12.50;;
34064;SDS011;20339;49.754;20.158;2023-07-02T04:13:39;15.80;;;13.70;;
34064;SDS011;20339;49.754;20.158;2023-07-02T04:16:13;14.50;;;13.00;;
34064;SDS011;20339;49.754;20.158;2023-07-02T04:18:45;14.00;;;12.60;;
34064;SDS011;20339;49.754;20.158;2023-07-02T04:21:16;15.20;;;13.70;;
34064;SDS011;20339;49.754;20.158;2023-07-02T04:23:48;15.40;;;13.70;;
34064;SDS011;20339;49.754;20.158;2023-07-02T04:26:19;14.80;;;12.60;;
34064;SDS011;20339;49.754;20.158;2023-07-02T04:28:51;14.10;;;12.60;;
34064;SDS011;20339;49.754;20.158;2023-07-02T04:31:23;13.70;;;12.30;;
34064;SDS011;20339;49.754;20.158;2023-07-02T04:33:55;13.40;;;12.00;;
34064;SDS011;20339;49.754;20.158;2023-07-02T04:36:27;13.40;;;12.10;;
34064;SDS011;20339;49.754;20.158;2023-07-02T04:38:59;14.20;;;12.10;;
34064;SDS011;20339;49.754;20.158;2023-07-02T04:41:30;13.60;;;12.10;;
34064;SDS011;20339;49.754;20.158;2023-07-02T04:44:02;12.90;;;11.70;;
34064;SDS011;20339;49.754;20.158;2023-07-02T04:46:34;12.80;;;11.60;;
34064;SDS011;20339;49.754;20.158;2023-07-02T04:49:05;12.80;;;11.50;;
34064;SDS011;20339;49.754;20.158;2023-07-02T04:51:37;11.40;;;10.20;;
34064;SDS011;20339;49.754;20.158;2023-07-02T04:54:08;11.40;;;10.20;;
34064;SDS011;20339;49.754;20.158;2023-07-02T04:56:40;10.30;;;9.20;;
34064;SDS011;20339;49.754;20.158;2023-07-02T04:59:20;10.50;;;9.20;;
34064;SDS011;20339;49.754;20.158;2023-07-02T05:01:51;9.20;;;8.30;;
34064;SDS011;20339;49.754;20.158;2023-07-02T05:04:23;10.00;;;9.00;;
34064;SDS011;20339;49.754;20.158;2023-07-02T05:06:54;10.80;;;9.80;;
34064;SDS011;20339;49.754;20.158;2023-07-02T05:09:26;10.30;;;9.30;;
34064;SDS011;20339;49.754;20.158;2023-07-02T05:11:58;10.70;;;9.60;;
34064;SDS011;20339;49.754;20.158;2023-07-02T05:14:31;11.00;;;9.80;;
34064;SDS011;20339;49.754;20.158;2023-07-02T05:17:02;10.10;;;9.00;;
34064;SDS011;20339;49.754;20.158;2023-07-02T05:19:34;10.80;;;9.70;;
34064;SDS011;20339;49.754;20.158;2023-07-02T05:22:06;10.90;;;9.20;;
34064;SDS011;20339;49.754;20.158;2023-07-02T05:24:37;11.00;;;9.80;;
34064;SDS011;20339;49.754;20.158;2023-07-02T05:27:10;11.40;;;10.10;;
34064;SDS011;20339;49.754;20.158;2023-07-02T05:29:44;12.50;;;9.80;;
34064;SDS011;20339;49.754;20.158;2023-07-02T05:32:21;11.60;;;10.40;;
34064;SDS011;20339;49.754;20.158;2023-07-02T05:34:55;10.90;;;9.80;;
34064;SDS011;20339;49.754;20.158;2023-07-02T05:37:28;11.70;;;9.70;;
34064;SDS011;20339;49.754;20.158;2023-07-02T05:39:59;10.00;;;9.00;;
34064;SDS011;20339;49.754;20.158;2023-07-02T05:42:31;10.20;;;9.10;;
34064;SDS011;20339;49.754;20.158;2023-07-02T05:45:02;11.30;;;9.50;;
34064;SDS011;20339;49.754;20.158;2023-07-02T05:47:35;10.90;;;9.50;;
34064;SDS011;20339;49.754;20.158;2023-07-02T05:50:08;10.40;;;8.80;;
34064;SDS011;20339;49.754;20.158;2023-07-02T05:52:39;11.10;;;8.70;;
34064;SDS011;20339;49.754;20.158;2023-07-02T05:55:11;10.40;;;9.40;;
34064;SDS011;20339;49.754;20.158;2023-07-02T05:57:42;9.80;;;8.50;;
34064;SDS011;20339;49.754;20.158;2023-07-02T06:00:17;9.70;;;7.70;;
34064;SDS011;20339;49.754;20.158;2023-07-02T06:02:48;9.80;;;7.70;;
34064;SDS011;20339;49.754;20.158;2023-07-02T06:05:20;8.80;;;7.60;;
34064;SDS011;20339;49.754;20.158;2023-07-02T06:07:51;10.60;;;8.50;;
34064;SDS011;20339;49.754;20.158;2023-07-02T06:10:23;9.70;;;8.50;;
34064;SDS011;20339;49.754;20.158;2023-07-02T06:12:55;8.90;;;7.90;;
34064;SDS011;20339;49.754;20.158;2023-07-02T06:15:26;8.70;;;7.10;;
34064;SDS011;20339;49.754;20.158;2023-07-02T06:17:59;8.90;;;6.70;;
34064;SDS011;20339;49.754;20.158;2023-07-02T06:20:30;9.00;;;6.60;;
34064;SDS011;20339;49.754;20.158;2023-07-02T06:23:03;7.80;;;6.10;;
34064;SDS011;20339;49.754;20.158;2023-07-02T06:25:34;7.20;;;5.60;;
34064;SDS011;20339;49.754;20.158;2023-07-02T06:28:05;7.40;;;6.30;;
34064;SDS011;20339;49.754;20.158;2023-07-02T06:30:37;8.00;;;6.20;;
34064;SDS011;20339;49.754;20.158;2023-07-02T06:33:09;8.10;;;6.60;;
34064;SDS011;20339;49.754;20.158;2023-07-02T06:35:40;9.10;;;6.20;;
34064;SDS011;20339;49.754;20.158;2023-07-02T06:38:12;8.10;;;6.40;;
34064;SDS011;20339;49.754;20.158;2023-07-02T06:40:43;7.50;;;5.30;;
34064;SDS011;20339;49.754;20.158;2023-07-02T06:43:14;7.60;;;6.00;;
34064;SDS011;20339;49.754;20.158;2023-07-02T06:45:46;6.50;;;5.50;;
34064;SDS011;20339;49.754;20.158;2023-07-02T06:48:21;7.50;;;6.20;;
34064;SDS011;20339;49.754;20.158;2023-07-02T06:50:53;7.80;;;6.10;;
34064;SDS011;20339;49.754;20.158;2023-07-02T06:53:25;7.40;;;5.70;;
34064;SDS011;20339;49.754;20.158;2023-07-02T06:55:56;7.70;;;5.80;;
34064;SDS011;20339;49.754;20.158;2023-07-02T06:58:28;6.60;;;5.90;;
34064;SDS011;20339;49.754;20.158;2023-07-02T07:01:00;6.80;;;5.90;;
34064;SDS011;20339;49.754;20.158;2023-07-02T07:03:32;5.60;;;4.90;;
34064;SDS011;20339;49.754;20.158;2023-07-02T07:06:04;6.50;;;5.30;;
34064;SDS011;20339;49.754;20.158;2023-07-02T07:08:38;5.90;;;5.30;;
34064;SDS011;20339;49.754;20.158;2023-07-02T07:11:10;5.80;;;5.20;;
34064;SDS011;20339;49.754;20.158;2023-07-02T07:13:42;5.70;;;4.90;;
34064;SDS011;20339;49.754;20.158;2023-07-02T07:16:13;6.40;;;5.20;;
34064;SDS011;20339;49.754;20.158;2023-07-02T07:18:45;7.20;;;5.10;;
34064;SDS011;20339;49.754;20.158;2023-07-02T07:21:16;6.30;;;5.10;;
34064;SDS011;20339;49.754;20.158;2023-07-02T07:23:48;7.30;;;5.50;;
34064;SDS011;20339;49.754;20.158;2023-07-02T07:26:19;7.40;;;5.10;;
34064;SDS011;20339;49.754;20.158;2023-07-02T07:28:51;6.50;;;4.70;;
34064;SDS011;20339;49.754;20.158;2023-07-02T07:31:24;6.20;;;5.00;;
34064;SDS011;20339;49.754;20.158;2023-07-02T07:33:56;8.60;;;5.10;;
34064;SDS011;20339;49.754;20.158;2023-07-02T07:36:27;6.60;;;5.10;;
34064;SDS011;20339;49.754;20.158;2023-07-02T07:38:59;7.00;;;4.90;;
34064;SDS011;20339;49.754;20.158;2023-07-02T07:41:30;6.20;;;5.00;;
34064;SDS011;20339;49.754;20.158;2023-07-02T07:44:04;6.70;;;5.20;;
34064;SDS011;20339;49.754;20.158;2023-07-02T07:46:36;5.80;;;5.20;;
34064;SDS011;20339;49.754;20.158;2023-07-02T07:49:08;7.50;;;5.50;;
34064;SDS011;20339;49.754;20.158;2023-07-02T07:51:39;6.50;;;5.30;;
34064;SDS011;20339;49.754;20.158;2023-07-02T07:54:10;7.30;;;5.50;;
34064;SDS011;20339;49.754;20.158;2023-07-02T07:56:42;8.00;;;6.00;;
34064;SDS011;20339;49.754;20.158;2023-07-02T07:59:13;9.10;;;5.60;;
34064;SDS011;20339;49.754;20.158;2023-07-02T08:01:44;8.00;;;5.10;;
34064;SDS011;20339;49.754;20.158;2023-07-02T08:04:15;6.70;;;5.10;;
34064;SDS011;20339;49.754;20.158;2023-07-02T08:06:47;7.40;;;5.60;;
34064;SDS011;20339;49.754;20.158;2023-07-02T08:09:18;6.00;;;4.80;;
34064;SDS011;20339;49.754;20.158;2023-07-02T08:11:50;6.30;;;5.50;;
34064;SDS011;20339;49.754;20.158;2023-07-02T08:14:21;6.30;;;5.10;;
34064;SDS011;20339;49.754;20.158;2023-07-02T08:16:53;6.20;;;4.70;;
34064;SDS011;20339;49.754;20.158;2023-07-02T08:19:24;7.40;;;5.80;;
34064;SDS011;20339;49.754;20.158;2023-07-02T08:21:56;7.10;;;5.60;;
34064;SDS011;20339;49.754;20.158;2023-07-02T08:24:28;9.50;;;6.00;;
34064;SDS011;20339;49.754;20.158;2023-07-02T08:27:01;8.90;;;5.50;;
34064;SDS011;20339;49.754;20.158;2023-07-02T08:29:33;9.30;;;5.50;;
34064;SDS011;20339;49.754;20.158;2023-07-02T08:32:05;6.60;;;5.50;;
34064;SDS011;20339;49.754;20.158;2023-07-02T08:34:37;8.00;;;5.80;;
34064;SDS011;20339;49.754;20.158;2023-07-02T08:37:08;8.10;;;5.20;;
34064;SDS011;20339;49.754;20.158;2023-07-02T08:39:40;5.90;;;4.90;;
34064;SDS011;20339;49.754;20.158;2023-07-02T08:42:11;7.30;;;5.10;;
34064;SDS011;20339;49.754;20.158;2023-07-02T08:44:42;9.40;;;4.70;;
34064;SDS011;20339;49.754;20.158;2023-07-02T08:47:17;6.80;;;4.70;;
34064;SDS011;20339;49.754;20.158;2023-07-02T08:49:49;6.60;;;5.10;;
34064;SDS011;20339;49.754;20.158;2023-07-02T08:52:21;8.40;;;5.10;;
34064;SDS011;20339;49.754;20.158;2023-07-02T08:54:52;6.80;;;4.70;;
34064;SDS011;20339;49.754;20.158;2023-07-02T08:57:23;6.30;;;4.80;;
34064;SDS011;20339;49.754;20.158;2023-07-02T08:59:54;7.50;;;5.20;;
34064;SDS011;20339;49.754;20.158;2023-07-02T09:02:33;7.80;;;5.10;;
34064;SDS011;20339;49.754;20.158;2023-07-02T09:05:05;5.90;;;4.60;;
34064;SDS011;20339;49.754;20.158;2023-07-02T09:07:44;8.20;;;4.80;;
34064;SDS011;20339;49.754;20.158;2023-07-02T09:10:26;9.60;;;4.70;;
34064;SDS011;20339;49.754;20.158;2023-07-02T09:13:06;6.40;;;4.80;;
34064;SDS011;20339;49.754;20.158;2023-07-02T09:15:41;7.60;;;4.90;;
34064;SDS011;20339;49.754;20.158;2023-07-02T09:18:16;7.60;;;4.70;;
34064;SDS011;20339;49.754;20.158;2023-07-02T09:20:49;6.20;;;4.90;;
34064;SDS011;20339;49.754;20.158;2023-07-02T09:23:21;8.20;;;4.80;;
34064;SDS011;20339;49.754;20.158;2023-07-02T09:26:01;6.10;;;4.30;;
34064;SDS011;20339;49.754;20.158;2023-07-02T09:28:33;5.40;;;4.30;;
34064;SDS011;20339;49.754;20.158;2023-07-02T09:31:04;6.20;;;4.30;;
34064;SDS011;20339;49.754;20.158;2023-07-02T09:33:37;5.50;;;4.40;;
34064;SDS011;20339;49.754;20.158;2023-07-02T09:36:08;5.80;;;4.80;;
34064;SDS011;20339;49.754;20.158;2023-07-02T09:38:41;6.60;;;4.00;;
34064;SDS011;20339;49.754;20.158;2023-07-02T09:41:12;5.30;;;4.50;;
34064;SDS011;20339;49.754;20.158;2023-07-02T09:43:44;6.50;;;4.20;;
34064;SDS011;20339;49.754;20.158;2023-07-02T09:46:16;4.00;;;3.60;;
34064;SDS011;20339;49.754;20.158;2023-07-02T09:48:48;5.20;;;4.10;;
34064;SDS011;20339;49.754;20.158;2023-07-02T09:51:20;6.40;;;4.10;;
34064;SDS011;20339;49.754;20.158;2023-07-02T09:53:52;7.00;;;4.30;;
34064;SDS011;20339;49.754;20.158;2023-07-02T09:56:23;5.00;;;3.80;;
34064;SDS011;20339;49.754;20.158;2023-07-02T09:58:55;7.10;;;3.60;;
34064;SDS011;20339;49.754;20.158;2023-07-02T10:01:26;6.10;;;4.20;;
34064;SDS011;20339;49.754;20.158;2023-07-02T10:04:09;6.20;;;3.60;;
34064;SDS011;20339;49.754;20.158;2023-07-02T10:06:49;8.60;;;3.80;;
34064;SDS011;20339;49.754;20.158;2023-07-02T10:09:33;3.70;;;3.40;;
34064;SDS011;20339;49.754;20.158;2023-07-02T10:12:19;4.60;;;3.50;;
34064;SDS011;20339;49.754;20.158;2023-07-02T10:14:52;4.00;;;3.30;;
34064;SDS011;20339;49.754;20.158;2023-07-02T10:17:26;6.50;;;3.60;;
34064;SDS011;20339;49.754;20.158;2023-07-02T10:19:59;7.10;;;3.40;;
34064;SDS011;20339;49.754;20.158;2023-07-02T10:22:43;6.30;;;3.60;;
34064;SDS011;20339;49.754;20.158;2023-07-02T10:25:25;4.50;;;2.90;;
34064;SDS011;20339;49.754;20.158;2023-07-02T10:27:58;4.90;;;3.30;;
34064;SDS011;20339;49.754;20.158;2023-07-02T10:30:43;3.70;;;3.30;;
34064;SDS011;20339;49.754;20.158;2023-07-02T10:33:17;4.60;;;3.20;;
34064;SDS011;20339;49.754;20.158;2023-07-02T10:35:49;4.30;;;3.50;;
34064;SDS011;20339;49.754;20.158;2023-07-02T10:38:22;5.00;;;3.60;;
34064;SDS011;20339;49.754;20.158;2023-07-02T10:40:58;4.20;;;3.00;;
34064;SDS011;20339;49.754;20.158;2023-07-02T10:43:30;5.40;;;3.60;;
34064;SDS011;20339;49.754;20.158;2023-07-02T10:46:01;5.80;;;3.60;;
34064;SDS011;20339;49.754;20.158;2023-07-02T10:48:33;4.40;;;3.60;;
34064;SDS011;20339;49.754;20.158;2023-07-02T10:51:12;4.40;;;3.30;;
34064;SDS011;20339;49.754;20.158;2023-07-02T10:53:43;4.50;;;3.50;;
34064;SDS011;20339;49.754;20.158;2023-07-02T10:56:17;5.20;;;3.30;;
34064;SDS011;20339;49.754;20.158;2023-07-02T10:58:50;5.50;;;3.40;;
34064;SDS011;20339;49.754;20.158;2023-07-02T11:01:25;8.30;;;3.70;;
34064;SDS011;20339;49.754;20.158;2023-07-02T11:03:59;6.90;;;3.70;;
34064;SDS011;20339;49.754;20.158;2023-07-02T11:06:32;4.70;;;3.70;;
34064;SDS011;20339;49.754;20.158;2023-07-02T11:09:14;5.50;;;4.20;;
34064;SDS011;20339;49.754;20.158;2023-07-02T11:11:53;6.10;;;4.10;;
34064;SDS011;20339;49.754;20.158;2023-07-02T11:14:29;5.00;;;3.50;;
34064;SDS011;20339;49.754;20.158;2023-07-02T11:17:02;6.60;;;3.70;;
34064;SDS011;20339;49.754;20.158;2023-07-02T11:19:36;3.90;;;3.10;;
34064;SDS011;20339;49.754;20.158;2023-07-02T11:22:07;4.90;;;3.50;;
34064;SDS011;20339;49.754;20.158;2023-07-02T11:24:38;6.60;;;4.20;;
34064;SDS011;20339;49.754;20.158;2023-07-02T11:27:10;6.40;;;3.40;;
34064;SDS011;20339;49.754;20.158;2023-07-02T11:29:58;4.50;;;3.40;;
34064;SDS011;20339;49.754;20.158;2023-07-02T11:32:30;4.20;;;3.30;;
34064;SDS011;20339;49.754;20.158;2023-07-02T11:35:06;5.60;;;3.60;;
34064;SDS011;20339;49.754;20.158;2023-07-02T11:37:41;5.10;;;3.80;;
34064;SDS011;20339;49.754;20.158;2023-07-02T11:40:16;5.40;;;3.60;;
34064;SDS011;20339;49.754;20.158;2023-07-02T11:42:49;4.50;;;3.50;;
34064;SDS011;20339;49.754;20.158;2023-07-02T11:45:21;6.30;;;3.90;;
34064;SDS011;20339;49.754;20.158;2023-07-02T11:47:54;4.00;;;3.10;;
34064;SDS011;20339;49.754;20.158;2023-07-02T11:50:26;3.60;;;3.30;;
34064;SDS011;20339;49.754;20.158;2023-07-02T11:52:59;4.20;;;3.60;;
34064;SDS011;20339;49.754;20.158;2023-07-02T11:55:32;6.60;;;3.50;;
34064;SDS011;20339;49.754;20.158;2023-07-02T11:58:05;4.40;;;3.00;;
34064;SDS011;20339;49.754;20.158;2023-07-02T12:00:38;3.80;;;3.00;;
34064;SDS011;20339;49.754;20.158;2023-07-02T12:03:10;3.80;;;3.20;;
34064;SDS011;20339;49.754;20.158;2023-07-02T12:05:42;4.30;;;3.30;;
34064;SDS011;20339;49.754;20.158;2023-07-02T12:08:17;4.00;;;2.90;;
34064;SDS011;20339;49.754;20.158;2023-07-02T12:10:49;4.00;;;2.80;;
34064;SDS011;20339;49.754;20.158;2023-07-02T12:13:20;5.40;;;2.80;;
34064;SDS011;20339;49.754;20.158;2023-07-02T12:15:52;3.50;;;2.80;;
34064;SDS011;20339;49.754;20.158;2023-07-02T12:18:23;4.10;;;2.50;;
34064;SDS011;20339;49.754;20.158;2023-07-02T12:20:55;4.00;;;2.70;;
34064;SDS011;20339;49.754;20.158;2023-07-02T12:23:26;3.00;;;2.40;;
34064;SDS011;20339;49.754;20.158;2023-07-02T12:25:58;3.80;;;2.60;;
34064;SDS011;20339;49.754;20.158;2023-07-02T12:28:29;5.60;;;3.10;;
34064;SDS011;20339;49.754;20.158;2023-07-02T12:31:01;3.00;;;2.50;;
34064;SDS011;20339;49.754;20.158;2023-07-02T12:33:32;3.50;;;2.60;;
34064;SDS011;20339;49.754;20.158;2023-07-02T12:36:06;2.70;;;2.30;;
34064;SDS011;20339;49.754;20.158;2023-07-02T12:38:38;5.00;;;2.40;;
34064;SDS011;20339;49.754;20.158;2023-07-02T12:41:11;2.70;;;2.00;;
34064;SDS011;20339;49.754;20.158;2023-07-02T12:43:42;2.30;;;2.10;;
34064;SDS011;20339;49.754;20.158;2023-07-02T12:46:17;2.90;;;2.20;;
34064;SDS011;20339;49.754;20.158;2023-07-02T12:48:48;4.90;;;1.90;;
34064;SDS011;20339;49.754;20.158;2023-07-02T12:51:19;3.80;;;2.30;;
34064;SDS011;20339;49.754;20.158;2023-07-02T12:53:51;3.70;;;2.30;;
34064;SDS011;20339;49.754;20.158;2023-07-02T12:56:23;5.70;;;2.20;;
34064;SDS011;20339;49.754;20.158;2023-07-02T12:58:56;2.60;;;2.00;;
34064;SDS011;20339;49.754;20.158;2023-07-02T13:01:30;3.50;;;2.10;;
34064;SDS011;20339;49.754;20.158;2023-07-02T13:04:02;2.10;;;1.70;;
34064;SDS011;20339;49.754;20.158;2023-07-02T13:06:33;2.80;;;2.20;;
34064;SDS011;20339;49.754;20.158;2023-07-02T13:09:08;1.90;;;1.70;;
34064;SDS011;20339;49.754;20.158;2023-07-02T13:11:41;2.80;;;1.60;;
34064;SDS011;20339;49.754;20.158;2023-07-02T13:14:18;2.50;;;2.10;;
34064;SDS011;20339;49.754;20.158;2023-07-02T13:16:51;3.10;;;1.90;;
34064;SDS011;20339;49.754;20.158;2023-07-02T13:19:27;3.50;;;2.00;;
34064;SDS011;20339;49.754;20.158;2023-07-02T13:21:58;2.30;;;1.80;;
34064;SDS011;20339;49.754;20.158;2023-07-02T13:24:33;1.90;;;1.70;;
34064;SDS011;20339;49.754;20.158;2023-07-02T13:27:05;2.40;;;1.80;;
34064;SDS011;20339;49.754;20.158;2023-07-02T13:29:41;2.10;;;1.40;;
34064;SDS011;20339;49.754;20.158;2023-07-02T13:32:13;2.30;;;2.10;;
34064;SDS011;20339;49.754;20.158;2023-07-02T13:34:44;1.90;;;1.70;;
34064;SDS011;20339;49.754;20.158;2023-07-02T13:37:15;3.30;;;2.10;;
34064;SDS011;20339;49.754;20.158;2023-07-02T13:39:47;2.50;;;1.70;;
34064;SDS011;20339;49.754;20.158;2023-07-02T13:42:20;2.70;;;1.60;;
34064;SDS011;20339;49.754;20.158;2023-07-02T13:44:51;2.40;;;1.50;;
34064;SDS011;20339;49.754;20.158;2023-07-02T13:47:23;3.10;;;1.70;;
34064;SDS011;20339;49.754;20.158;2023-07-02T13:49:56;1.70;;;1.50;;
34064;SDS011;20339;49.754;20.158;2023-07-02T13:52:27;2.40;;;1.70;;
34064;SDS011;20339;49.754;20.158;2023-07-02T13:55:03;1.40;;;1.30;;
34064;SDS011;20339;49.754;20.158;2023-07-02T13:57:35;2.00;;;1.60;;
34064;SDS011;20339;49.754;20.158;2023-07-02T14:00:07;1.20;;;1.10;;
34064;SDS011;20339;49.754;20.158;2023-07-02T14:02:39;1.50;;;1.40;;
34064;SDS011;20339;49.754;20.158;2023-07-02T14:05:11;1.60;;;1.40;;
34064;SDS011;20339;49.754;20.158;2023-07-02T14:07:42;1.90;;;1.50;;
34064;SDS011;20339;49.754;20.158;2023-07-02T14:10:14;2.70;;;1.60;;
34064;SDS011;20339;49.754;20.158;2023-07-02T14:12:47;1.50;;;1.30;;
34064;SDS011;20339;49.754;20.158;2023-07-02T14:15:21;2.60;;;1.50;;
34064;SDS011;20339;49.754;20.158;2023-07-02T14:17:53;1.70;;;1.50;;
34064;SDS011;20339;49.754;20.158;2023-07-02T14:20:25;2.10;;;1.50;;
34064;SDS011;20339;49.754;20.158;2023-07-02T14:22:56;1.60;;;1.40;;
34064;SDS011;20339;49.754;20.158;2023-07-02T14:25:26;1.70;;;1.60;;
34064;SDS011;20339;49.754;20.158;2023-07-02T14:27:58;2.00;;;1.40;;
34064;SDS011;20339;49.754;20.158;2023-07-02T14:30:29;3.40;;;1.60;;
34064;SDS011;20339;49.754;20.158;2023-07-02T14:33:01;3.10;;;1.60;;
34064;SDS011;20339;49.754;20.158;2023-07-02T14:35:33;2.30;;;1.60;;
34064;SDS011;20339;49.754;20.158;2023-07-02T14:38:05;1.40;;;1.30;;
34064;SDS011;20339;49.754;20.158;2023-07-02T14:40:36;3.30;;;1.60;;
34064;SDS011;20339;49.754;20.158;2023-07-02T14:43:07;3.90;;;1.30;;
34064;SDS011;20339;49.754;20.158;2023-07-02T14:45:42;4.90;;;1.70;;
34064;SDS011;20339;49.754;20.158;2023-07-02T14:48:15;3.30;;;1.20;;
34064;SDS011;20339;49.754;20.158;2023-07-02T14:51:33;2.90;;;1.40;;
34064;SDS011;20339;49.754;20.158;2023-07-02T14:54:04;2.50;;;1.50;;
34064;SDS011;20339;49.754;20.158;2023-07-02T14:56:36;2.00;;;1.30;;
34064;SDS011;20339;49.754;20.158;2023-07-02T14:59:08;3.40;;;1.10;;